M I D A S
Marine Information and Data Acquisition System
Tripno 411 of the Zeeleeuw from 2003-01-08 07:41:15 to 2003-01-08 14:00:47
Back to CruiseResearch ActivitiesStationsMapUnderway DataData graphs

EquipmentUnitsComment
TimeDGPSUTC
LatitudeDGPSDM.mWGS84
LongitudeDGPSDM.mWGS84
TemperatureSBE03/SBE38deg celciusITS90
ConductivitySBE21S/mITS90
SalinitySBE21 Practical Salinity Units
ChlorophylAChelsea fluorimeterg/lCalibrated in Aceton
Missing or incorrect values are displayed as -999
Sea surface data collected by the RV Zeeleeuw from 2003-01-08 07:41:15 to 2003-01-08 14:00:47
Time Latitude Longitude Temperature Conductivity Salinity ChlorophylA
2003-01-08 07:42:18 51°13.662 2°55.881 15.545644 0.00053 0.009689  
2003-01-08 07:43:17 51°13.686 2°55.784 15.598404 0.000426 0.009289  
2003-01-08 07:44:17 51°13.695 2°55.725 15.482693 0.000426 0.009294  
2003-01-08 07:45:15 51°13.711 2°55.723 15.451757 0.000426 0.0093  
2003-01-08 07:46:22 51°13.766 2°55.683 15.594005 0.000426 0.009306  
2003-01-08 07:47:21 51°13.84 2°55.629 15.433864 0.000426 0.009311  
2003-01-08 07:48:22 51°13.937 2°55.559 15.451239 0.000426 0.009316  
2003-01-08 07:49:21 51°14.044 2°55.483 15.319691 0.000426 0.009321  
2003-01-08 07:50:23 51°14.165 2°55.38 15.312676 0.000426 0.009327  
2003-01-08 07:51:23 51°14.273 2°55.234 15.103366 0.000426 0.009331  
2003-01-08 07:52:21 51°14.36 2°55.053 15.086119 0.000426 0.009337  
2003-01-08 07:53:21 51°14.478 2°54.825 15.396808 0.000426 0.009342  
2003-01-08 07:54:21 51°14.638 2°54.611 15.305487 0.000426 0.009347  
2003-01-08 07:55:19 51°14.81 2°54.447 -999 0.000426 0.009352  
2003-01-08 07:56:23 51°14.998 2°54.266 7.458266 2.780272 23.011181  
2003-01-08 07:57:23 51°15.174 2°54.093 7.323628 2.959324 29.372798  
2003-01-08 07:58:23 51°15.351 2°53.927 7.322601 2.963852 29.607238  
2003-01-08 07:59:23 51°15.529 2°53.763 7.006694 2.943436 29.579397  
2003-01-08 08:00:23 51°15.72 2°53.588 7.342837 2.94249 29.629642  
2003-01-08 08:01:23 51°15.924 2°53.4 7.619197 2.954066 29.718659  
2003-01-08 08:02:23 51°16.131 2°53.211 6.865387 2.940806 29.621579  
2003-01-08 08:03:23 51°16.338 2°53.024 7.133078 2.951857 29.781968  
2003-01-08 08:04:23 51°16.545 2°52.836 7.78681 2.977642 29.97064  
2003-01-08 08:05:23 51°16.75 2°52.653 7.295267 3.012481 30.293723  
2003-01-08 08:06:23 51°16.958 2°52.481 7.242082 3.023428 30.404481  
2003-01-08 08:07:23 51°17.169 2°52.32 7.533642 3.029112 30.446624  
2003-01-08 08:08:23 51°17.38 2°52.153 7.606689 3.049533 30.614868  
2003-01-08 08:09:23 51°17.591 2°51.988 7.078825 3.067218 30.75941  
2003-01-08 08:10:23 51°17.802 2°51.823 7.185619 3.070902 30.776756  
2003-01-08 08:11:23 51°18.013 2°51.657 7.771132 3.082271 30.870567  
2003-01-08 08:12:23 51°18.226 2°51.487 7.772394 3.098588 30.985212  
2003-01-08 08:13:23 51°18.438 2°51.314 7.424401 3.108694 31.028577  
2003-01-08 08:14:23 51°18.656 2°51.176 7.455778 3.11838 31.098564  
2003-01-08 08:15:23 51°18.881 2°51.084 7.594764 3.129645 31.192143  
2003-01-08 08:16:23 51°19.107 2°50.999 7.773025 3.12596 31.149156  
2003-01-08 08:17:23 51°19.334 2°50.903 7.750011 3.120064 31.104576  
2003-01-08 08:18:23 51°19.538 2°50.706 7.532521 3.115853 31.084825  
2003-01-08 08:19:23 51°19.74 2°50.495 7.129302 3.113221 31.065203  
2003-01-08 08:20:23 51°19.944 2°50.283 7.3423 3.118064 31.114729  
2003-01-08 08:21:23 51°20.15 2°50.073 7.378943 3.123118 31.159492  
2003-01-08 08:22:23 51°20.357 2°49.864 7.802048 3.138278 31.278676  
2003-01-08 08:23:27 51°20.573 2°49.642 8.34394 3.160809 31.452704  
2003-01-08 08:24:31 51°20.797 2°49.451 8.017225 3.204609 31.725685  
2003-01-08 08:25:31 51°21.019 2°49.318 8.054501 3.212506 31.785277  
2003-01-08 08:26:31 51°21.246 2°49.216 7.807482 3.213348 31.796096  
2003-01-08 08:27:31 51°21.478 2°49.146 7.765063 3.213138 31.799345  
2003-01-08 08:28:31 51°21.712 2°49.098 8.401076 3.214085 31.810527  
2003-01-08 08:29:33 51°21.956 2°49.049 7.452168 3.216191 31.832022  
2003-01-08 08:30:37 51°22.208 2°49.031 7.464461 3.221772 31.878083  
2003-01-08 08:31:37 51°22.443 2°49.016 8.020224 3.22988 31.942247  
2003-01-08 08:32:37 51°22.679 2°49.002 8.207291 3.233039 31.972073  
2003-01-08 08:33:37 51°22.914 2°48.988 8.134634 3.244096 32.05966  
2003-01-08 08:34:39 51°23.156 2°48.965 7.715377 3.263577 32.222504  
2003-01-08 08:35:43 51°23.404 2°48.939 7.889814 3.263998 32.223908  
2003-01-08 08:36:42 51°23.633 2°48.917 7.598658 3.259681 32.195885  
2003-01-08 08:37:41 51°23.861 2°48.894 7.569299 3.257259 32.191802  
2003-01-08 08:38:43 51°24.099 2°48.872 8.465221 3.26779 32.27261  
2003-01-08 08:39:47 51°24.343 2°48.833 8.390066 3.275583 32.339423  
2003-01-08 08:40:47 51°24.573 2°48.795 8.17406 3.279795 32.377476  
2003-01-08 08:41:47 51°24.806 2°48.755 8.08615 3.287693 32.413182  
2003-01-08 08:42:47 51°25.038 2°48.713 8.341486 3.299066 32.488362  
2003-01-08 08:43:47 51°25.269 2°48.661 8.582488 3.305385 32.534802  
2003-01-08 08:44:47 51°25.499 2°48.605 8.302836 3.303174 32.526765  
2003-01-08 08:45:47 51°25.73 2°48.551 8.437745 3.297171 32.489391  
2003-01-08 08:46:47 51°25.962 2°48.493 7.959844 3.285482 32.419573  
2003-01-08 08:47:47 51°26.195 2°48.442 7.966475 3.280427 32.397271  
2003-01-08 08:48:47 51°26.429 2°48.393 7.887925 3.289905 32.472797  
2003-01-08 08:49:47 51°26.664 2°48.343 8.683989 3.29317 32.505294  
2003-01-08 08:50:47 51°26.899 2°48.295 8.629402 3.302332 32.586155  
2003-01-08 08:51:47 51°27.129 2°48.198 8.637354 3.337823 32.832208  
2003-01-08 08:52:47 51°27.354 2°48.082 8.699351 3.395435 33.180572  
2003-01-08 08:53:47 51°27.582 2°47.966 9.012163 3.411234 33.280323  
2003-01-08 08:54:47 51°27.806 2°47.844 8.868475 3.421557 33.347363  
2003-01-08 08:55:47 51°28.031 2°47.723 8.721024 3.43504 33.424031  
2003-01-08 08:56:51 51°28.267 2°47.594 8.90736 3.445784 33.485567  
2003-01-08 08:57:55 51°28.506 2°47.469 9.076466 3.451578 33.523677  
2003-01-08 08:58:53 51°28.722 2°47.355 8.894147 3.455581 33.547322  
2003-01-08 08:59:59 51°28.972 2°47.226 8.925483 3.456634 33.562753  
2003-01-08 09:00:59 51°29.198 2°47.107 8.827943 3.457582 33.577052  
2003-01-08 09:01:59 51°29.425 2°46.992 8.858118 3.462533 33.605189  
2003-01-08 09:02:59 51°29.652 2°46.877 9.237776 3.470012 33.65239  
2003-01-08 09:03:59 51°29.877 2°46.757 9.456838 3.478861 33.703673  
2003-01-08 09:04:59 51°30.105 2°46.639 9.536387 3.481179 33.722097  
2003-01-08 09:05:59 51°30.331 2°46.52 9.436971 3.488026 33.766418  
2003-01-08 09:06:59 51°30.551 2°46.395 9.333327 3.523107 33.957906  
2003-01-08 09:07:59 51°30.771 2°46.275 10.047701 3.566302 34.169322  
2003-01-08 09:08:59 51°30.995 2°46.159 9.38221 3.582737 34.247441  
2003-01-08 09:09:59 51°31.215 2°46.041 9.644753 3.59085 34.282426  
2003-01-08 09:10:59 51°31.436 2°45.918 9.90098 3.596961 34.309103  
2003-01-08 09:11:59 51°31.654 2°45.795 9.21656 3.596961 34.309103  
2003-01-08 09:12:59 51°31.871 2°45.671 9.503312 3.59517 34.299845  
2003-01-08 09:13:59 51°32.091 2°45.551 9.980599 3.596961 34.306665  
2003-01-08 09:14:59 51°32.312 2°45.433 9.650176 3.600333 34.317251  
2003-01-08 09:15:59 51°32.535 2°45.312 9.777511 3.606233 34.335957  
2003-01-08 09:16:59 51°32.756 2°45.191 8.998351 3.608445 34.347225  
2003-01-08 09:17:59 51°32.977 2°45.069 9.612206 3.61856 34.39345  
2003-01-08 09:18:59 51°33.2 2°44.967 9.805977 3.627622 34.43168  
2003-01-08 09:19:59 51°33.424 2°44.858 10.087199 3.637316 34.485411  
2003-01-08 09:20:59 51°33.647 2°44.749 9.37525 3.645113 34.522283  
2003-01-08 09:21:59 51°33.87 2°44.635 9.961079 3.651857 34.554472  
2003-01-08 09:22:59 51°34.098 2°44.531 9.995235 3.652489 34.560322  
2003-01-08 09:23:59 51°34.325 2°44.426 9.99031 3.652595 34.564673  
2003-01-08 09:24:59 51°34.553 2°44.32 9.91446 3.652595 34.567103  
2003-01-08 09:26:03 51°34.789 2°44.204 10.180998 3.653121 34.569413  
2003-01-08 09:27:03 51°35.01 2°44.094 9.985009 3.651962 34.561252  
2003-01-08 09:28:03 51°35.233 2°43.989 10.07605 3.652489 34.565183  
2003-01-08 09:29:03 51°35.456 2°43.889 10.44622 3.655018 34.574809  
2003-01-08 09:30:03 51°35.678 2°43.784 10.088136 3.659233 34.593268  
2003-01-08 09:31:03 51°35.897 2°43.679 10.232521 3.663553 34.613627  
2003-01-08 09:32:07 51°36.135 2°43.572 10.108133 3.667663 34.626086  
2003-01-08 09:33:03 51°36.342 2°43.475 10.743491 3.671562 34.644408  
2003-01-08 09:34:07 51°36.579 2°43.36 10.514569 3.676198 34.662372  
2003-01-08 09:35:07 51°36.801 2°43.256 10.269805 3.682415 34.682352  
2003-01-08 09:36:07 51°37.022 2°43.154 10.262518 3.689686 34.701236  
2003-01-08 09:37:07 51°37.244 2°43.056 10.274336 3.690845 34.704501  
2003-01-08 09:38:07 51°37.467 2°42.961 10.868623 3.687368 34.696318  
2003-01-08 09:39:11 51°37.704 2°42.849 10.287459 3.686946 34.689479  
2003-01-08 09:40:11 51°37.932 2°42.774 10.680812 3.69095 34.699958  
2003-01-08 09:41:16 51°38.176 2°42.703 10.482452 3.697905 34.721146  
2003-01-08 09:42:15 51°38.397 2°42.633 10.583171 3.702226 34.742955  
2003-01-08 09:43:15 51°38.621 2°42.569 10.329846 3.705914 34.755722  
2003-01-08 09:44:21 51°38.872 2°42.505 10.61259 3.708548 34.774383  
2003-01-08 09:45:21 51°39.097 2°42.44 10.513219 3.711077 34.782272  
2003-01-08 09:46:21 51°39.321 2°42.374 10.80333 3.713185 34.793002  
2003-01-08 09:47:21 51°39.546 2°42.323 10.48492 3.714134 34.797266  
2003-01-08 09:48:21 51°39.771 2°42.271 11.024323 3.714555 34.798445  
2003-01-08 09:49:21 51°39.996 2°42.218 10.616029 3.715609 34.797368  
2003-01-08 09:50:21 51°40.221 2°42.164 11.860115 3.716136 34.798841  
2003-01-08 09:51:19 51°40.438 2°42.11 10.265788 3.715293 34.793265  
2003-01-08 09:52:21 51°40.669 2°42.041 10.824731 3.713396 34.783129  
2003-01-08 09:53:21 51°40.893 2°41.979 10.34515 3.71171 34.774384  
2003-01-08 09:54:21 51°41.116 2°41.924 10.391789 3.707494 34.760156  
2003-01-08 09:55:21 51°41.34 2°41.891 10.636469 3.704017 34.751206  
2003-01-08 09:56:21 51°41.563 2°41.881 10.068929 3.701699 34.745504  
2003-01-08 09:57:21 51°41.787 2°41.871 10.306835 3.696851 34.730274  
2003-01-08 09:58:21 51°41.989 2°41.854 10.368287 3.693058 34.721219  
2003-01-08 09:59:21 51°42.101 2°41.827 10.141323 3.692953 34.719309  
2003-01-08 10:00:19 51°42.146 2°41.82 9.985243 3.692742 34.719523  
2003-01-08 10:01:21 51°42.159 2°41.809 10.366841 3.692426 34.718633  
2003-01-08 10:02:21 51°42.165 2°41.795 10.366002 3.69211 34.718551  
2003-01-08 10:03:21 51°42.168 2°41.771 10.551972 3.692215 34.719654  
2003-01-08 10:04:21 51°42.168 2°41.744 10.360171 3.691583 34.717068  
2003-01-08 10:05:21 51°42.167 2°41.713 10.438347 3.691477 34.715964  
2003-01-08 10:06:21 51°42.163 2°41.679 10.319532 3.692215 34.722883  
2003-01-08 10:07:21 51°42.158 2°41.643 10.25738 3.691161 34.715074  
2003-01-08 10:08:21 51°42.154 2°41.606 10.321445 3.691372 34.718089  
2003-01-08 10:09:21 51°42.149 2°41.569 10.054684 3.691793 34.72089  
2003-01-08 10:10:21 51°42.145 2°41.533 10.095536 3.692004 34.72229  
2003-01-08 10:11:21 51°42.151 2°41.499 10.138749 3.692004 34.719868  
2003-01-08 10:12:21 51°42.176 2°41.497 10.338991 3.693163 34.722322  
2003-01-08 10:13:21 51°42.191 2°41.65 10.339225 3.694112 34.725797  
2003-01-08 10:14:20 51°42.043 2°41.835 10.321445 3.693163 34.716674  
2003-01-08 10:15:21 51°41.85 2°41.996 10.179689 3.689686 34.712536  
2003-01-08 10:16:21 51°41.659 2°42.151 10.201855 3.68663 34.70393  
2003-01-08 10:17:21 51°41.464 2°42.297 10.108039 3.684206 34.691444  
2003-01-08 10:18:21 51°41.27 2°42.446 10.128873 3.68231 34.682054  
2003-01-08 10:19:21 51°41.077 2°42.596 10.493904 3.687894 34.700224  
2003-01-08 10:20:21 51°40.884 2°42.744 10.410062 3.694217 34.716413  
2003-01-08 10:21:21 51°40.69 2°42.891 10.07502 3.697273 34.729846  
2003-01-08 10:22:21 51°40.496 2°43.034 9.839839 3.694955 34.723327  
2003-01-08 10:23:21 51°40.301 2°43.18 10.71028 3.687157 34.702184  
2003-01-08 10:24:21 51°40.106 2°43.33 10.334652 3.686946 34.703205  
2003-01-08 10:25:21 51°39.909 2°43.475 10.552018 3.688737 34.703407  
2003-01-08 10:26:21 51°39.711 2°43.624 9.79558 3.690634 34.705521  
2003-01-08 10:27:21 51°39.515 2°43.775 10.527551 3.693374 34.714041  
2003-01-08 10:28:21 51°39.318 2°43.927 10.804396 3.697273 34.725009  
2003-01-08 10:29:21 51°39.119 2°44.072 10.036264 3.697694 34.726194  
2003-01-08 10:30:21 51°38.921 2°44.221 10.415096 3.696957 34.721702  
2003-01-08 10:31:20 51°38.726 2°44.367 10.594792 3.695481 34.714328  
2003-01-08 10:32:21 51°38.525 2°44.514 10.385914 3.694533 34.713271  
2003-01-08 10:33:21 51°38.326 2°44.653 9.75374 3.689897 34.710708  
2003-01-08 10:34:21 51°38.127 2°44.797 10.911468 3.6782 34.676922  
2003-01-08 10:35:21 51°37.927 2°44.942 10.306835 3.669349 34.639763  
2003-01-08 10:36:21 51°37.726 2°45.085 10.220836 3.666398 34.624931  
2003-01-08 10:37:21 51°37.529 2°45.227 10.02009 3.663764 34.614225  
2003-01-08 10:38:21 51°37.328 2°45.37 9.365683 3.655123 34.575918  
2003-01-08 10:39:21 51°37.131 2°45.515 9.810682 3.64996 34.549879  
2003-01-08 10:40:21 51°36.931 2°45.657 9.98787 3.647431 34.536999  
2003-01-08 10:41:21 51°36.735 2°45.801 9.73401 3.644165 34.522817  
2003-01-08 10:42:21 51°36.539 2°45.946 9.798968 3.64132 34.513071  
2003-01-08 10:43:21 51°36.343 2°46.088 10.042264 3.639213 34.502184  
2003-01-08 10:44:21 51°36.148 2°46.229 9.667668 3.637527 34.493309  
2003-01-08 10:45:21 51°35.95 2°46.358 9.589507 3.636789 34.485523  
2003-01-08 10:46:21 51°35.756 2°46.502 10.047607 3.635419 34.475928  
2003-01-08 10:47:21 51°35.572 2°46.681 9.344746 3.633522 34.461579  
2003-01-08 10:48:21 51°35.391 2°46.863 9.752798 3.631626 34.448848  
2003-01-08 10:49:21 51°35.207 2°47.041 9.89788 3.626147 34.423389  
2003-01-08 10:50:21 51°35.063 2°47.182 9.518576 3.611396 34.359806  
2003-01-08 10:51:21 51°34.985 2°47.253 9.821688 3.601808 34.311784  
2003-01-08 10:52:21 51°34.925 2°47.3 9.675493 3.595486 34.286953  
2003-01-08 10:53:21 51°34.871 2°47.356 10.03017 3.590323 34.263018  
2003-01-08 10:54:21 51°34.828 2°47.392 9.351521 3.585898 34.242015  
2003-01-08 10:55:21 51°34.805 2°47.371 9.953569 3.582843 34.226611  
2003-01-08 10:56:21 51°34.782 2°47.339 9.661728 3.579366 34.213217  
2003-01-08 10:57:21 51°34.756 2°47.305 9.215278 3.575994 34.20012  
2003-01-08 10:58:21 51°34.727 2°47.272 9.412034 3.573676 34.190092  
2003-01-08 10:59:21 51°34.684 2°47.24 9.691518 3.573992 34.186952  
2003-01-08 11:00:20 51°34.639 2°47.229 9.957277 3.56746 34.164579  
2003-01-08 11:01:21 51°34.609 2°47.25 9.899618 3.562614 34.143046  
2003-01-08 11:02:21 51°34.593 2°47.262 9.325034 3.560191 34.127794  
2003-01-08 11:03:21 51°34.589 2°47.278 9.397692 3.559875 34.122797  
2003-01-08 11:04:21 51°34.599 2°47.312 9.281989 3.55998 34.12392  
2003-01-08 11:05:21 51°34.531 2°47.463 9.361184 3.560085 34.12423  
2003-01-08 11:06:21 51°34.321 2°47.539 9.086598 3.5584 34.117649  
2003-01-08 11:07:21 51°34.08 2°47.583 9.391064 3.550814 34.077418  
2003-01-08 11:08:21 51°33.834 2°47.592 8.972387 3.545862 34.048973  
2003-01-08 11:09:21 51°33.584 2°47.563 9.378991 3.545862 34.045718  
2003-01-08 11:10:21 51°33.335 2°47.524 9.153108 3.542491 34.026803  
2003-01-08 11:11:21 51°33.085 2°47.483 9.101722 3.542175 34.025868  
2003-01-08 11:12:21 51°32.837 2°47.449 8.84074 3.539014 34.013259  
2003-01-08 11:13:21 51°32.589 2°47.418 9.149355 3.53617 34.000763  
2003-01-08 11:14:21 51°32.339 2°47.378 9.056006 3.536065 34.004522  
2003-01-08 11:15:21 51°32.089 2°47.346 9.03454 3.534274 34.009806  
2003-01-08 11:16:21 51°31.84 2°47.317 9.148024 3.532904 34.005747  
2003-01-08 11:17:21 51°31.593 2°47.277 9.198804 3.53301 34.009321  
2003-01-08 11:18:21 51°31.346 2°47.25 9.003686 3.527426 33.996845  
2003-01-08 11:19:21 51°31.099 2°47.258 8.630935 3.522053 33.963748  
2003-01-08 11:20:21 51°30.857 2°47.273 8.945603 3.517839 33.93407  
2003-01-08 11:21:21 51°30.618 2°47.306 9.363694 3.503196 33.86177  
2003-01-08 11:22:21 51°30.387 2°47.366 8.310828 3.484023 33.767412  
2003-01-08 11:23:21 51°30.288 2°47.461 9.130106 3.482232 33.753025  
2003-01-08 11:24:21 51°30.308 2°47.511 8.844273 3.480863 33.735011  
2003-01-08 11:25:21 51°30.342 2°47.56 9.165034 3.476228 33.709569  
2003-01-08 11:26:21 51°30.354 2°47.647 8.471032 3.47212 33.691412  
2003-01-08 11:27:21 51°30.373 2°47.759 8.925578 3.466537 33.66386  
2003-01-08 11:28:21 51°30.402 2°47.847 8.371119 3.467379 33.665603  
2003-01-08 11:29:21 51°30.394 2°47.846 8.864657 3.477703 33.715663  
2003-01-08 11:30:21 51°30.378 2°47.821 8.770275 3.490238 33.777978  
2003-01-08 11:31:21 51°30.357 2°47.789 9.452439 3.493293 33.79533  
2003-01-08 11:32:21 51°30.332 2°47.756 9.041062 3.495295 33.798903  
2003-01-08 11:33:21 51°30.304 2°47.747 9.361563 3.498455 33.818184  
2003-01-08 11:34:21 51°30.295 2°47.741 8.546429 3.494452 33.79963  
2003-01-08 11:35:21 51°30.363 2°47.838 9.047773 3.476755 33.713611  
2003-01-08 11:36:21 51°30.298 2°48.046 8.894433 3.475069 33.702796  
2003-01-08 11:37:21 51°30.1 2°48.057 9.123071 3.48139 33.739867  
2003-01-08 11:38:21 51°29.888 2°48.055 8.965335 3.478019 33.7207  
2003-01-08 11:39:21 51°29.662 2°48.051 8.686047 3.458425 33.614693  
2003-01-08 11:40:21 51°29.436 2°48.048 8.624899 3.451578 33.56768  
2003-01-08 11:41:21 51°29.209 2°48.057 8.936449 3.443678 33.519018  
2003-01-08 11:42:21 51°28.966 2°48.088 8.696097 3.437252 33.485422  
2003-01-08 11:43:21 51°28.72 2°48.119 8.820349 3.43167 33.446216  
2003-01-08 11:44:21 51°28.475 2°48.139 8.747376 3.433882 33.460369  
2003-01-08 11:45:21 51°28.232 2°48.16 8.410546 3.412078 33.340757  
2003-01-08 11:46:21 51°27.991 2°48.204 8.27977 3.397858 33.262228  
2003-01-08 11:47:21 51°27.751 2°48.254 8.19919 3.391223 33.217015  
2003-01-08 11:48:21 51°27.51 2°48.309 8.263537 3.382691 33.167427  
2003-01-08 11:49:21 51°27.271 2°48.365 8.24836 3.379953 33.140072  
2003-01-08 11:50:21 51°27.034 2°48.421 8.449131 3.371842 33.083555  
2003-01-08 11:51:21 51°26.796 2°48.472 8.028637 3.365944 33.039668  
2003-01-08 11:52:21 51°26.555 2°48.521 8.105519 3.371 33.058111  
2003-01-08 11:53:21 51°26.326 2°48.578 8.018386 3.372895 33.064106  
2003-01-08 11:54:21 51°26.167 2°48.628 8.572181 3.382585 33.113377  
2003-01-08 11:55:21 51°26.058 2°48.676 8.858356 3.391011 33.152069  
2003-01-08 11:56:21 51°25.976 2°48.61 7.904931 3.386061 33.125134  
2003-01-08 11:57:21 51°25.968 2°48.454 8.413093 3.316444 32.724363  
2003-01-08 11:58:21 51°26.02 2°48.414 7.690349 3.287273 32.556395  
2003-01-08 11:59:21 51°26.042 2°48.485 8.097888 3.32845 32.792335  
2003-01-08 12:00:21 51°26.047 2°48.516 8.459458 3.374475 33.065037  
2003-01-08 12:01:21 51°26.048 2°48.539 8.452589 3.385113 33.120526  
2003-01-08 12:02:21 51°26.05 2°48.558 8.983536 3.387535 33.133834  
2003-01-08 12:03:21 51°26.053 2°48.56 8.911653 3.375002 33.068326  
2003-01-08 12:04:21 51°26.056 2°48.554 8.517691 3.366787 33.026076  
2003-01-08 12:05:21 51°26.057 2°48.547 8.479483 3.371947 33.053794  
2003-01-08 12:06:21 51°26.056 2°48.534 8.679011 3.383322 33.11245  
2003-01-08 12:07:21 51°26.064 2°48.551 8.467959 3.389221 33.143194  
2003-01-08 12:08:21 51°26.07 2°48.586 8.558659 3.392486 33.158324  
2003-01-08 12:09:21 51°26.094 2°48.65 8.603482 3.39396 33.165389  
2003-01-08 12:10:21 51°26.128 2°48.726 8.480155 3.394276 33.167193  
2003-01-08 12:11:21 51°26.157 2°48.857 8.559474 3.393223 33.159827  
2003-01-08 12:12:21 51°26.001 2°48.99 8.598018 3.392696 33.15168  
2003-01-08 12:13:21 51°25.773 2°49.049 8.174929 3.374264 33.062746  
2003-01-08 12:14:21 51°25.542 2°49.115 7.527745 3.292012 32.575138  
2003-01-08 12:15:21 51°25.31 2°49.175 8.524745 3.267475 32.410229  
2003-01-08 12:16:21 51°25.078 2°49.234 7.768316 3.260209 32.350571  
2003-01-08 12:17:21 51°24.847 2°49.288 8.079049 3.24831 32.264931  
2003-01-08 12:18:21 51°24.612 2°49.344 7.664679 3.245783 32.238732  
2003-01-08 12:19:21 51°24.377 2°49.404 7.947694 3.23957 32.194553  
2003-01-08 12:20:21 51°24.141 2°49.453 7.664436 3.245888 32.231012  
2003-01-08 12:21:21 51°23.901 2°49.472 7.485921 3.233673 32.153003  
2003-01-08 12:22:21 51°23.656 2°49.465 7.912827 3.227039 32.096843  
2003-01-08 12:23:21 51°23.41 2°49.456 7.64002 3.215141 32.026865  
2003-01-08 12:24:21 51°23.161 2°49.455 7.977267 3.218615 32.05231  
2003-01-08 12:25:21 51°22.915 2°49.466 8.090546 3.257998 32.304446  
2003-01-08 12:26:21 51°22.668 2°49.477 8.136855 3.278005 32.418305  
2003-01-08 12:27:21 51°22.426 2°49.491 7.793265 3.271897 32.361028  
2003-01-08 12:28:21 51°22.293 2°49.556 8.152492 3.257681 32.247802  
2003-01-08 12:29:21 51°22.254 2°49.661 8.124303 3.250415 32.180951  
2003-01-08 12:30:21 51°22.274 2°49.715 7.579282 3.248309 32.155441  
2003-01-08 12:31:21 51°22.284 2°49.735 8.34904 3.244307 32.134804  
2003-01-08 12:32:21 51°22.286 2°49.734 8.106582 3.24157 32.122404  
2003-01-08 12:33:21 51°22.283 2°49.714 8.021771 3.240306 32.114147  
2003-01-08 12:34:21 51°22.277 2°49.682 7.939511 3.239358 32.10695  
2003-01-08 12:35:21 51°22.269 2°49.644 8.693082 3.239674 32.109616  
2003-01-08 12:36:21 51°22.306 2°49.596 7.831737 3.239042 32.103481  
2003-01-08 12:37:21 51°22.361 2°49.438 8.065471 3.240201 32.116201  
2003-01-08 12:38:21 51°22.301 2°49.22 8.232311 3.24178 32.13435  
2003-01-08 12:39:21 51°22.102 2°49.157 7.714113 3.247572 32.172238  
2003-01-08 12:40:21 51°21.875 2°49.201 7.594423 3.25031 32.179796  
2003-01-08 12:41:21 51°21.652 2°49.301 7.829846 3.2382 32.100648  
2003-01-08 12:42:21 51°21.431 2°49.402 7.806367 3.199135 31.853549  
2003-01-08 12:43:21 51°21.212 2°49.496 6.822732 3.106275 31.199968  
2003-01-08 12:44:21 51°20.992 2°49.59 6.987186 3.04564 30.759194  
2003-01-08 12:45:21 51°20.771 2°49.677 7.087216 3.047746 30.776375  
2003-01-08 12:46:21 51°20.551 2°49.775 6.898074 3.066693 30.914958  
2003-01-08 12:47:21 51°20.334 2°49.893 7.278147 3.066904 30.899108  
2003-01-08 12:48:21 51°20.116 2°50.007 7.379871 3.063325 30.858456  
2003-01-08 12:49:21 51°19.9 2°50.131 7.476801 3.058061 30.808519  
2003-01-08 12:50:21 51°19.681 2°50.252 7.377869 3.059956 30.811485  
2003-01-08 12:51:21 51°19.463 2°50.376 6.709257 3.040692 30.663041  
2003-01-08 12:52:21 51°19.244 2°50.505 7.581327 3.059745 30.785519  
2003-01-08 12:53:21 51°19.02 2°50.631 7.063413 3.050903 30.707596  
2003-01-08 12:54:21 51°18.788 2°50.724 6.80514 3.052587 30.713766  
2003-01-08 12:55:21 51°18.581 2°50.806 7.156119 3.054166 30.723474  
2003-01-08 12:56:21 51°18.462 2°50.899 7.472802 3.062903 30.786816  
2003-01-08 12:57:21 51°18.437 2°50.97 7.617542 3.064587 30.794527  
2003-01-08 12:58:21 51°18.442 2°51.004 7.303581 3.066376 30.80419  
2003-01-08 12:59:21 51°18.453 2°51.013 7.190763 3.06785 30.809556  
2003-01-08 13:00:21 51°18.464 2°51.017 7.66463 3.068271 30.813445  
2003-01-08 13:01:21 51°18.473 2°51.018 7.179985 3.068376 30.814614  
2003-01-08 13:02:21 51°18.479 2°51.016 7.379237 3.066903 30.808464  
2003-01-08 13:03:21 51°18.501 2°51.03 7.891946 3.066692 30.806911  
2003-01-08 13:04:21 51°18.587 2°50.991 7.087706 3.065955 30.80187  
2003-01-08 13:05:21 51°18.61 2°50.765 7.118808 3.06564 30.80858  
2003-01-08 13:06:21 51°18.433 2°50.655 7.336093 3.065324 30.809789  
2003-01-08 13:07:21 51°18.256 2°50.857 7.490212 3.066271 30.810094  
2003-01-08 13:08:21 51°18.095 2°51.1 7.551034 3.066482 30.808502  
2003-01-08 13:09:21 51°17.93 2°51.346 7.231655 3.069429 30.821587  
2003-01-08 13:10:29 51°17.727 2°51.616 6.758006 3.061745 30.754324  
2003-01-08 13:11:29 51°17.548 2°51.857 6.61491 3.039323 30.584287  
2003-01-08 13:12:29 51°17.368 2°52.098 7.294436 3.011535 30.370231  
2003-01-08 13:13:29 51°17.193 2°52.344 6.654197 2.99701 30.257379  
2003-01-08 13:14:29 51°17.023 2°52.597 6.812779 2.983327 30.145918  
2003-01-08 13:15:29 51°16.853 2°52.852 7.253095 2.970381 30.038614  
2003-01-08 13:16:29 51°16.683 2°53.113 6.832586 2.959225 29.949586  
2003-01-08 13:17:29 51°16.52 2°53.378 6.858986 2.943544 29.8399  
2003-01-08 13:18:29 51°16.353 2°53.638 6.865387 2.932915 29.776456  
2003-01-08 13:19:29 51°16.214 2°53.913 6.295663 2.923549 29.709265  
2003-01-08 13:20:29 51°16.216 2°54.096 6.583611 2.919445 29.662472  
2003-01-08 13:21:29 51°16.243 2°54.208 6.553485 2.888927 29.421372  
2003-01-08 13:22:29 51°16.242 2°54.282 6.745477 2.88135 29.366875  
2003-01-08 13:23:29 51°16.225 2°54.288 6.410225 2.877457 29.335351  
2003-01-08 13:24:29 51°16.2 2°54.285 7.286855 2.874195 29.314737  
2003-01-08 13:25:29 51°16.176 2°54.287 6.69815 2.871459 29.296201  
2003-01-08 13:26:29 51°16.156 2°54.292 6.749867 2.865461 29.251645  
2003-01-08 13:27:29 51°16.139 2°54.301 6.536362 2.860516 29.215069  
2003-01-08 13:28:29 51°16.131 2°54.321 6.934137 2.858201 29.198929  
2003-01-08 13:29:29 51°16.141 2°54.33 7.045347 2.855886 29.179726  
2003-01-08 13:30:29 51°16.169 2°54.316 7.247515 2.853887 29.164074  
2003-01-08 13:31:29 51°16.206 2°54.297 6.31583 2.854308 29.165762  
2003-01-08 13:32:29 51°16.248 2°54.276 6.778372 2.856202 29.184046  
2003-01-08 13:33:29 51°16.29 2°54.235 6.840172 2.861042 29.223288  
2003-01-08 13:34:29 51°16.336 2°54.163 6.842142 2.865146 29.255739  
2003-01-08 13:35:29 51°16.335 2°53.981 6.72352 2.880403 29.366951  
2003-01-08 13:36:29 51°16.188 2°53.867 7.214028 2.897661 29.504142  
2003-01-08 13:37:27 51°15.998 2°53.933 6.588161 2.908395 29.588538  
2003-01-08 13:38:29 51°15.802 2°54.062 6.420639 2.883455 29.393602  
2003-01-08 13:39:29 51°15.612 2°54.187 6.315582 2.858622 29.203671  
2003-01-08 13:40:29 51°15.421 2°54.312 6.323032 2.837051 29.026896  
2003-01-08 13:41:29 51°15.23 2°54.441 6.346219 2.832948 28.988221  
2003-01-08 13:42:30 51°15.036 2°54.561 6.266145 2.843575 29.069985  
2003-01-08 13:43:29 51°14.845 2°54.662 6.718092 2.828107 28.927562  
2003-01-08 13:44:30 51°14.65 2°54.776 6.392072 2.816954 28.816972  
2003-01-08 13:45:29 51°14.478 2°54.927 6.598348 2.811799 28.768671  
2003-01-08 13:46:29 51°14.333 2°55.135 6.357834 2.769399 28.348422  
2003-01-08 13:47:30 51°14.227 2°55.307 6.458361 2.555458 25.979347  
2003-01-08 13:48:29 51°14.142 2°55.397 7.057032 2.454202 24.79092  
2003-01-08 13:49:29 51°14.046 2°55.476 6.066463 2.29643 23.048596  
2003-01-08 13:50:29 51°13.943 2°55.555 6.516958 2.033375 20.265742  
2003-01-08 13:51:29 51°13.839 2°55.632 6.339914 2.072968 20.664216  
2003-01-08 13:52:29 51°13.752 2°55.728 6.388054 2.091243 20.843487  
2003-01-08 13:53:29 51°13.691 2°55.833 5.719923 1.755722 17.328184  
2003-01-08 13:54:29 51°13.65 2°55.924 5.766432 1.593965 15.679488  
2003-01-08 13:55:29 51°13.62 2°55.992 5.625145 1.698961 16.779807  
2003-01-08 13:56:29 51°13.601 2°56.05 -999 0.03857 0.302716  
2003-01-08 13:57:29 51°13.597 2°56.088 -999 0.585272 4.571701  
2003-01-08 13:58:30 51°13.596 2°56.098 -999 0.125302 0.880619  
2003-01-08 13:59:29 51°13.594 2°56.102 -999 0.05749 0.391863  
2003-01-08 14:00:29 51°13.595 2°56.102 -999 0.049069 0.333964